Time;durP1;ratioP1;P1;durP2;ratioP2;P2;SDS_P1;SDS_P2;PMS_P1;PMS_P2;Temp;Humidity;BMP_temperature;BMP_pressure;BME280_temperature;BME280_humidity;BME280_pressure;Samples;Min_cycle;Max_cycle;Signal;HPM_P1;HPM_P2
2022/01/07 00:00:21;;;;;;;6.22;4.95;;;;;;;5.55;56.84;95183.59;5010115;28;20225;-61
2022/01/07 00:02:53;;;;;;;5.72;4.55;;;;;;;5.13;57.81;95164.44;5009978;28;20917;-61
2022/01/07 00:05:22;;;;;;;6.20;5.05;;;;;;;5.61;56.77;95192.34;5010222;28;20197;-60
2022/01/07 00:07:50;;;;;;;6.35;4.50;;;;;;;5.41;56.98;95183.94;5009191;28;20212;-60
2022/01/07 00:10:20;;;;;;;6.55;4.90;;;;;;;5.70;56.30;95180.63;5010120;28;20673;-60
2022/01/07 00:12:48;;;;;;;5.63;4.20;;;;;;;5.45;56.58;95195.50;5009465;28;20252;-60
2022/01/07 00:15:19;;;;;;;5.30;4.35;;;;;;;5.17;57.62;95190.78;5010267;28;20182;-60
2022/01/07 00:17:46;;;;;;;4.93;4.43;;;;;;;5.33;56.99;95205.03;5009427;28;20264;-61
2022/01/07 00:20:14;;;;;;;5.95;4.55;;;;;;;5.37;57.03;95206.97;5009974;28;20630;-61
2022/01/07 00:22:44;;;;;;;4.88;3.28;;;;;;;5.29;57.14;95209.88;5008958;28;20669;-61
2022/01/07 00:25:13;;;;;;;6.05;4.72;;;;;;;5.29;57.24;95203.88;5009615;28;20212;-60
2022/01/07 00:27:40;;;;;;;5.65;4.55;;;;;;;5.18;57.30;95207.97;5008389;28;20209;-60
2022/01/07 00:30:10;;;;;;;5.85;4.30;;;;;;;5.35;57.16;95213.38;5010022;28;20264;-60
2022/01/07 00:32:38;;;;;;;7.82;4.65;;;;;;;5.48;56.42;95206.28;5009618;28;20285;-60
2022/01/07 00:35:06;;;;;;;5.60;4.05;;;;;;;5.09;57.34;95210.03;5009613;28;20213;-62
2022/01/07 00:37:34;;;;;;;5.97;4.68;;;;;;;5.72;55.90;95202.00;5009205;28;20206;-60
2022/01/07 00:40:01;;;;;;;5.72;4.78;;;;;;;5.88;55.47;95201.44;5009644;28;20213;-60
2022/01/07 00:42:28;;;;;;;6.47;4.85;;;;;;;5.82;55.63;95204.91;5009274;28;20522;-60
2022/01/07 00:44:55;;;;;;;5.93;4.90;;;;;;;5.60;56.08;95208.94;5009537;28;20225;-60
2022/01/07 00:47:22;;;;;;;5.38;4.30;;;;;;;5.54;55.77;95195.00;5009262;28;20198;-60
2022/01/07 00:49:49;;;;;;;5.75;4.47;;;;;;;5.79;55.62;95202.72;5009231;28;20194;-60
2022/01/07 00:52:17;;;;;;;6.47;5.18;;;;;;;5.79;55.78;95210.53;5009545;28;20237;-60
2022/01/07 00:54:44;;;;;;;4.93;4.38;;;;;;;5.42;56.44;95221.94;5008719;28;20684;-61
2022/01/07 00:57:11;;;;;;;6.65;4.78;;;;;;;5.85;55.92;95220.09;5009073;28;20210;-60
2022/01/07 00:59:39;;;;;;;6.40;4.75;;;;;;;5.98;55.23;95217.34;5008418;28;20208;-60
2022/01/07 01:02:07;;;;;;;5.80;4.80;;;;;;;5.72;55.50;95222.81;5009307;28;20251;-60
2022/01/07 01:04:44;;;;;;;5.80;4.72;;;;;;;5.72;55.59;95234.00;5008828;28;20255;-60
2022/01/07 01:07:15;;;;;;;7.15;4.68;;;;;;;5.81;55.50;95231.91;5008847;28;20322;-61
2022/01/07 01:09:42;;;;;;;9.07;4.97;;;;;;;5.49;56.03;95227.88;5008070;28;20190;-60
2022/01/07 01:12:10;;;;;;;5.97;4.82;;;;;;;5.93;55.76;95232.81;5008753;28;20658;-62
2022/01/07 01:14:39;;;;;;;6.43;5.25;;;;;;;5.85;55.28;95214.88;5008747;28;20198;-61
2022/01/07 01:17:07;;;;;;;6.40;4.88;;;;;;;5.85;54.99;95220.91;5009282;28;20255;-61
2022/01/07 01:19:36;;;;;;;6.75;5.22;;;;;;;5.95;55.19;95220.34;5007174;28;20216;-61
2022/01/07 01:22:05;;;;;;;5.90;4.60;;;;;;;5.74;55.25;95233.78;5009104;28;20205;-62
2022/01/07 01:24:32;;;;;;;7.65;5.20;;;;;;;5.87;54.88;95228.47;5008485;28;20260;-61
2022/01/07 01:26:58;;;;;;;6.47;4.70;;;;;;;5.44;55.58;95232.91;5008814;28;20216;-60
2022/01/07 01:29:26;;;;;;;7.13;5.05;;;;;;;6.07;54.94;95226.44;5008373;28;20603;-61
2022/01/07 01:31:54;;;;;;;6.60;4.97;;;;;;;5.72;55.26;95233.19;5009109;28;20245;-60
2022/01/07 01:34:21;;;;;;;5.85;5.25;;;;;;;5.71;55.52;95229.03;5008400;28;20643;-61
2022/01/07 01:36:48;;;;;;;7.95;5.47;;;;;;;5.68;55.33;95219.03;5008734;28;20202;-59
2022/01/07 01:39:14;;;;;;;6.93;4.90;;;;;;;5.86;55.02;95232.06;5007966;28;20591;-60
2022/01/07 01:41:42;;;;;;;7.35;5.85;;;;;;;5.98;54.43;95228.53;5008701;28;20221;-60
2022/01/07 01:44:09;;;;;;;8.60;5.93;;;;;;;6.10;54.69;95236.38;5008356;28;20201;-60
2022/01/07 01:46:36;;;;;;;7.65;5.60;;;;;;;5.91;54.38;95220.00;5008883;28;20692;-60
2022/01/07 01:49:05;;;;;;;7.78;5.53;;;;;;;5.70;55.46;95233.44;5010058;28;20257;-60
2022/01/07 01:51:34;;;;;;;7.40;5.28;;;;;;;5.84;55.05;95231.50;5009914;28;20194;-61
2022/01/07 01:54:02;;;;;;;6.75;4.82;;;;;;;5.84;55.47;95234.09;5008037;28;20292;-61
2022/01/07 01:56:30;;;;;;;7.30;5.20;;;;;;;5.98;54.50;95225.13;5008755;28;20205;-61
2022/01/07 01:58:56;;;;;;;8.32;5.80;;;;;;;6.36;53.84;95233.44;5008093;28;20696;-60
2022/01/07 02:01:23;;;;;;;7.30;5.68;;;;;;;6.19;54.30;95232.47;5007687;28;20341;-61
2022/01/07 02:03:51;;;;;;;8.73;5.88;;;;;;;6.23;53.98;95233.63;5008293;28;20197;-61
2022/01/07 02:06:18;;;;;;;6.78;5.10;;;;;;;5.90;54.45;95228.03;5008969;28;20256;-61
2022/01/07 02:08:45;;;;;;;6.93;4.28;;;;;;;5.81;54.51;95239.69;5007657;28;20193;-60
2022/01/07 02:11:12;;;;;;;6.75;5.28;;;;;;;6.14;54.07;95232.34;5008320;28;20196;-60
2022/01/07 02:13:39;;;;;;;8.55;6.22;;;;;;;6.30;54.02;95236.94;5007614;28;20198;-60
2022/01/07 02:16:06;;;;;;;7.43;5.43;;;;;;;5.95;54.70;95238.56;5008151;28;20670;-61
2022/01/07 02:18:34;;;;;;;7.03;5.32;;;;;;;5.83;55.23;95248.13;5007892;28;20193;-61
2022/01/07 02:21:02;;;;;;;7.32;5.47;;;;;;;6.01;54.56;95243.69;5008212;28;20272;-61
2022/01/07 02:23:29;;;;;;;6.47;5.38;;;;;;;5.99;54.63;95247.53;5007988;28;20202;-60
2022/01/07 02:25:57;;;;;;;6.93;5.00;;;;;;;5.78;54.88;95250.53;5008092;28;20204;-61
2022/01/07 02:28:24;;;;;;;7.03;5.20;;;;;;;5.83;54.88;95248.13;5008187;28;20194;-61
2022/01/07 02:30:51;;;;;;;6.03;4.63;;;;;;;6.13;54.52;95254.19;5008796;28;20206;-60
2022/01/07 02:33:18;;;;;;;5.82;4.32;;;;;;;6.14;54.06;95250.56;5008180;28;20284;-61
2022/01/07 02:35:47;;;;;;;7.28;5.35;;;;;;;6.23;54.14;95251.84;5008238;28;20209;-60
2022/01/07 02:38:15;;;;;;;6.20;4.32;;;;;;;6.18;53.97;95256.91;5007896;28;20198;-61
2022/01/07 02:40:42;;;;;;;6.30;4.40;;;;;;;5.93;54.43;95253.63;5007849;28;20202;-61
2022/01/07 02:43:09;;;;;;;6.20;4.15;;;;;;;5.77;54.75;95267.16;5007534;28;20198;-60
2022/01/07 02:45:37;;;;;;;6.63;4.80;;;;;;;5.97;54.85;95265.16;5008403;28;20198;-61
2022/01/07 02:48:04;;;;;;;6.10;4.82;;;;;;;5.85;54.77;95262.50;5007722;28;20237;-60
2022/01/07 02:50:35;;;;;;;7.78;5.20;;;;;;;6.14;54.17;95268.75;5008382;28;20205;-60
2022/01/07 02:53:09;;;;;;;6.15;4.78;;;;;;;6.17;54.05;95275.34;5010250;28;20755;-59
2022/01/07 02:55:37;;;;;;;6.85;5.32;;;;;;;6.12;54.13;95268.19;5011562;28;20194;-60
2022/01/07 02:58:06;;;;;;;6.47;4.97;;;;;;;6.08;54.45;95267.81;5011322;28;20259;-61
2022/01/07 03:00:32;;;;;;;6.82;4.70;;;;;;;6.47;53.39;95271.75;5011592;28;20213;-59
2022/01/07 03:03:03;;;;;;;6.10;5.00;;;;;;;5.91;54.59;95271.25;5011382;28;20270;-60
2022/01/07 03:05:31;;;;;;;8.20;5.18;;;;;;;5.97;54.50;95270.34;5011356;28;20206;-60
2022/01/07 03:07:58;;;;;;;9.27;5.63;;;;;;;5.59;55.20;95262.72;5011178;28;20232;-59
2022/01/07 03:10:29;;;;;;;6.55;4.55;;;;;;;5.46;55.15;95282.84;5010825;28;20201;-61
2022/01/07 03:12:59;;;;;;;7.10;4.57;;;;;;;5.40;56.08;95275.94;5010525;28;20200;-60
2022/01/07 03:15:27;;;;;;;6.82;4.82;;;;;;;5.67;55.40;95269.47;5011685;28;20202;-60
2022/01/07 03:17:54;;;;;;;6.28;4.72;;;;;;;5.50;55.81;95278.81;5010844;28;20316;-59
2022/01/07 03:20:23;;;;;;;6.15;5.22;;;;;;;5.09;56.40;95285.34;5010879;28;20209;-60
2022/01/07 03:22:50;;;;;;;7.70;5.35;;;;;;;5.49;56.30;95293.59;5010898;28;20256;-59
2022/01/07 03:25:18;;;;;;;6.03;4.75;;;;;;;5.75;54.97;95276.97;5010994;28;20284;-61
2022/01/07 03:27:45;;;;;;;5.78;4.63;;;;;;;5.78;55.12;95287.75;5010934;28;20248;-60
2022/01/07 03:30:15;;;;;;;7.32;5.15;;;;;;;5.88;54.71;95282.06;5011483;28;20225;-59
2022/01/07 03:32:42;;;;;;;6.57;5.00;;;;;;;5.80;54.77;95284.94;5010743;28;20236;-61
2022/01/07 03:35:11;;;;;;;7.72;5.22;;;;;;;6.09;54.28;95294.66;5011216;28;20213;-61
2022/01/07 03:37:40;;;;;;;6.88;4.78;;;;;;;5.62;55.56;95287.53;5010722;28;20205;-61
2022/01/07 03:40:08;;;;;;;8.15;4.70;;;;;;;5.93;54.56;95290.03;5010958;28;20201;-60
2022/01/07 03:42:35;;;;;;;8.15;4.82;;;;;;;6.11;54.46;95297.81;5010620;28;20218;-59
2022/01/07 03:45:04;;;;;;;7.45;5.10;;;;;;;5.58;55.27;95260.34;5010613;28;20197;-60
2022/01/07 03:47:31;;;;;;;7.50;5.28;;;;;;;5.80;54.79;95295.34;5010206;28;20672;-62
2022/01/07 03:49:58;;;;;;;7.95;4.95;;;;;;;5.34;55.84;95287.16;5010814;28;20202;-59
2022/01/07 03:52:27;;;;;;;6.63;5.05;;;;;;;5.46;56.35;95304.44;5011418;28;20217;-59
2022/01/07 03:54:54;;;;;;;7.38;5.28;;;;;;;5.60;55.76;95311.09;5010419;28;20193;-60
2022/01/07 03:57:21;;;;;;;6.30;4.93;;;;;;;5.76;55.23;95309.78;5010391;28;20665;-62
2022/01/07 03:59:50;;;;;;;6.13;4.70;;;;;;;6.04;54.48;95307.47;5009745;28;20201;-61
2022/01/07 04:02:18;;;;;;;7.72;5.07;;;;;;;5.52;55.38;95308.00;5009081;28;20240;-61
2022/01/07 04:04:46;;;;;;;7.95;5.32;;;;;;;5.86;55.04;95315.28;5009971;28;20263;-60
2022/01/07 04:07:13;;;;;;;7.25;5.10;;;;;;;5.55;55.49;95307.56;5010518;28;20193;-61
2022/01/07 04:09:40;;;;;;;7.35;5.35;;;;;;;5.92;54.67;95299.63;5009888;28;20198;-60
2022/01/07 04:12:08;;;;;;;7.45;5.43;;;;;;;5.64;55.37;95301.09;5010270;28;20677;-61
2022/01/07 04:14:35;;;;;;;9.73;5.68;;;;;;;5.72;55.43;95316.41;5010120;28;20193;-61
2022/01/07 04:17:02;;;;;;;7.53;5.40;;;;;;;5.79;55.07;95317.13;5010049;28;20233;-60
2022/01/07 04:19:29;;;;;;;8.98;6.05;;;;;;;5.75;55.10;95318.56;5009700;28;20181;-61
2022/01/07 04:24:41;;;;;;;8.80;6.28;;;;;;;5.96;54.47;95326.81;5009837;28;20206;-61
2022/01/07 04:27:08;;;;;;;7.50;5.90;;;;;;;5.66;55.20;95332.84;5010015;28;20248;-60
2022/01/07 04:29:35;;;;;;;9.13;5.93;;;;;;;6.01;54.65;95333.94;5009321;28;20194;-61
2022/01/07 04:32:05;;;;;;;10.25;6.68;;;;;;;6.33;53.90;95327.59;5009848;28;20205;-60
2022/01/07 04:34:32;;;;;;;8.43;5.65;;;;;;;6.53;53.26;95338.53;5009892;28;20194;-61
2022/01/07 04:36:58;;;;;;;8.55;5.65;;;;;;;6.15;53.80;95340.59;5010023;28;20213;-61
2022/01/07 04:39:25;;;;;;;9.40;6.05;;;;;;;6.29;53.63;95338.66;5008960;28;20229;-61
2022/01/07 04:41:53;;;;;;;9.68;6.97;;;;;;;6.17;53.73;95327.38;5009730;28;20214;-61
2022/01/07 04:44:21;;;;;;;9.20;6.38;;;;;;;6.39;53.72;95329.31;5009254;28;20228;-60
2022/01/07 04:46:47;;;;;;;9.18;6.07;;;;;;;6.09;54.26;95333.66;5009522;28;20206;-60
2022/01/07 04:49:15;;;;;;;9.20;6.30;;;;;;;5.59;55.35;95325.13;5008678;28;20284;-61
2022/01/07 04:51:42;;;;;;;9.98;6.00;;;;;;;5.57;55.05;95341.94;5010029;28;20198;-60
2022/01/07 04:54:09;;;;;;;8.93;6.30;;;;;;;5.56;55.17;95348.94;5009463;28;20209;-60
2022/01/07 04:56:36;;;;;;;9.52;6.25;;;;;;;5.05;56.40;95349.13;5009781;28;20259;-60
2022/01/07 04:59:03;;;;;;;9.18;6.03;;;;;;;5.09;56.84;95352.88;5009011;28;20703;-60
2022/01/07 05:01:29;;;;;;;9.30;6.18;;;;;;;5.56;56.02;95345.56;5007464;28;20210;-60
2022/01/07 05:03:56;;;;;;;9.63;6.30;;;;;;;5.29;56.40;95349.38;5007867;28;20202;-60
2022/01/07 05:08:55;;;;;;;8.85;6.15;;;;;;;5.53;56.04;95343.38;5008851;28;20225;-61
2022/01/07 05:11:24;;;;;;;11.50;6.68;;;;;;;5.34;56.64;95346.94;5009421;28;20186;-62
2022/01/07 05:13:51;;;;;;;9.52;6.63;;;;;;;5.70;55.77;95358.22;5008465;28;20182;-59
2022/01/07 05:16:18;;;;;;;11.48;6.70;;;;;;;5.46;56.26;95355.63;5009049;28;20704;-61
2022/01/07 05:18:45;;;;;;;9.32;6.72;;;;;;;5.54;55.76;95352.75;5008735;28;20194;-59
2022/01/07 05:21:12;;;;;;;9.43;6.13;;;;;;;5.06;57.19;95355.91;5008724;28;20196;-60
2022/01/07 05:23:39;;;;;;;9.15;6.22;;;;;;;5.10;57.23;95356.28;5008508;28;20190;-60
2022/01/07 05:26:07;;;;;;;10.70;6.80;;;;;;;4.60;58.36;95357.97;5008768;28;20202;-59
2022/01/07 05:28:34;;;;;;;11.00;6.60;;;;;;;4.83;58.03;95360.06;5008325;28;20205;-60
2022/01/07 05:31:03;;;;;;;13.98;7.88;;;;;;;5.17;57.45;95346.66;5007476;28;20538;-61
2022/01/07 05:33:30;;;;;;;10.15;6.90;;;;;;;4.99;57.96;95355.16;5009345;28;20213;-60
2022/01/07 05:35:57;;;;;;;15.48;7.32;;;;;;;5.14;57.20;95362.66;5008724;28;20209;-61
2022/01/07 05:38:24;;;;;;;11.98;7.57;;;;;;;5.36;56.96;95355.31;5008137;28;20272;-61
2022/01/07 05:40:51;;;;;;;10.75;7.15;;;;;;;5.43;56.55;95358.66;5008369;28;20204;-60
2022/01/07 05:43:18;;;;;;;12.77;7.68;;;;;;;5.43;56.54;95361.25;5008011;28;20680;-60
2022/01/07 05:45:46;;;;;;;14.98;7.13;;;;;;;5.36;56.71;95360.50;5008459;28;20190;-60
2022/01/07 05:48:13;;;;;;;11.40;7.38;;;;;;;5.65;56.21;95359.88;5006240;28;20278;-60
2022/01/07 05:50:40;;;;;;;12.75;7.55;;;;;;;6.17;54.57;95363.81;5006820;28;20209;-61
2022/01/07 05:53:07;;;;;;;10.88;7.38;;;;;;;5.72;55.37;95371.00;5006550;28;20297;-60
2022/01/07 05:55:35;;;;;;;10.07;6.82;;;;;;;5.33;56.50;95377.31;5007577;28;20236;-62
2022/01/07 05:58:02;;;;;;;32.28;20.15;;;;;;;5.88;55.82;95376.47;5007723;28;20277;-61
2022/01/07 06:00:30;;;;;;;28.63;16.95;;;;;;;6.15;55.14;95377.00;5007886;28;20202;-61
2022/01/07 06:02:57;;;;;;;16.13;9.65;;;;;;;6.34;54.22;95376.00;5007828;28;20229;-64
2022/01/07 06:05:24;;;;;;;11.30;7.82;;;;;;;6.31;53.38;95371.25;5008577;28;20201;-61
2022/01/07 06:07:51;;;;;;;19.13;8.13;;;;;;;6.19;54.19;95378.16;5008136;28;20202;-61
2022/01/07 06:10:19;;;;;;;14.88;8.07;;;;;;;5.83;55.26;95388.53;5008454;28;20569;-61
2022/01/07 06:12:46;;;;;;;12.98;8.23;;;;;;;5.93;55.03;95388.88;5007342;28;20190;-62
2022/01/07 06:15:13;;;;;;;14.23;8.30;;;;;;;6.07;54.27;95379.91;5009599;28;20209;-61
2022/01/07 06:17:40;;;;;;;13.57;8.32;;;;;;;5.29;56.71;95391.75;5009642;28;20198;-60
2022/01/07 06:20:08;;;;;;;12.60;8.05;;;;;;;5.33;56.36;95394.72;5008136;28;20214;-60
2022/01/07 06:22:36;;;;;;;18.77;12.73;;;;;;;5.56;56.12;95397.53;5007756;28;20237;-66
2022/01/07 06:25:05;;;;;;;173.88;111.45;;;;;;;5.27;56.45;95353.97;5009785;28;20240;-60
2022/01/07 06:27:31;;;;;;;18.23;11.35;;;;;;;5.79;55.51;95395.13;5011607;28;20190;-61
2022/01/07 06:29:58;;;;;;;14.93;9.50;;;;;;;5.34;56.86;95389.31;5011971;28;20226;-61
2022/01/07 06:32:25;;;;;;;13.10;8.52;;;;;;;5.64;55.69;95400.66;5010539;28;20281;-61
2022/01/07 06:34:52;;;;;;;14.13;9.55;;;;;;;5.05;57.73;95411.44;5009856;28;20615;-60
2022/01/07 06:37:20;;;;;;;12.27;8.45;;;;;;;5.05;57.40;95406.25;5009879;28;20680;-60
2022/01/07 06:39:47;;;;;;;11.18;8.30;;;;;;;5.50;56.61;95398.38;5010826;28;20326;-60
2022/01/07 06:42:14;;;;;;;16.60;9.02;;;;;;;5.03;57.39;95408.28;5011002;28;20727;-60
2022/01/07 06:44:41;;;;;;;14.70;9.18;;;;;;;5.19;57.51;95414.78;5011228;28;20274;-60
2022/01/07 06:47:09;;;;;;;14.15;9.38;;;;;;;5.00;57.74;95419.06;5011457;28;20205;-60
2022/01/07 06:49:36;;;;;;;16.05;9.18;;;;;;;4.79;58.29;95421.97;5000236;28;20385;-60
2022/01/07 06:52:05;;;;;;;19.13;8.80;;;;;;;4.93;57.74;95423.50;4999714;28;20202;-61
2022/01/07 06:54:32;;;;;;;13.13;8.98;;;;;;;5.21;57.55;95419.75;4992006;28;20288;-61
2022/01/07 06:57:00;;;;;;;14.95;10.07;;;;;;;4.98;57.14;95404.72;4991307;28;20931;-61
2022/01/07 06:59:27;;;;;;;14.57;9.75;;;;;;;5.05;57.74;95415.88;4991608;28;20202;-60
2022/01/07 07:01:54;;;;;;;17.02;10.45;;;;;;;4.83;58.30;95422.38;4992008;28;20214;-61
2022/01/07 07:04:21;;;;;;;17.08;10.70;;;;;;;5.15;57.14;95411.81;4991691;28;20206;-62
2022/01/07 07:06:48;;;;;;;16.70;10.32;;;;;;;5.16;57.44;95423.00;4992314;28;20214;-60
2022/01/07 07:09:17;;;;;;;15.55;10.02;;;;;;;5.63;56.55;95421.66;4991278;28;20202;-60
2022/01/07 07:11:44;;;;;;;16.38;10.65;;;;;;;5.57;56.27;95414.72;4991583;28;20210;-59
2022/01/07 07:14:11;;;;;;;21.33;10.98;;;;;;;5.93;55.42;95405.25;5006228;28;20194;-61
2022/01/07 07:16:39;;;;;;;16.23;10.38;;;;;;;5.82;55.34;95412.94;4991996;28;20222;-60
2022/01/07 07:19:06;;;;;;;15.43;10.52;;;;;;;5.73;55.61;95419.41;4991226;28;20264;-61
2022/01/07 07:21:33;;;;;;;16.48;10.68;;;;;;;5.42;56.37;95428.00;4991939;28;20313;-61
2022/01/07 07:24:02;;;;;;;19.55;11.07;;;;;;;5.84;55.45;95416.13;4991113;28;20293;-60
2022/01/07 07:26:29;;;;;;;17.88;11.52;;;;;;;5.66;55.95;95416.84;4991483;28;20202;-61
2022/01/07 07:28:56;;;;;;;15.77;10.80;;;;;;;5.67;56.08;95410.66;4991203;28;20202;-60
2022/01/07 07:31:22;;;;;;;21.15;11.25;;;;;;;5.69;56.11;95418.22;4991002;28;20245;-60
2022/01/07 07:36:29;;;;;;;20.50;11.45;;;;;;;5.78;55.61;95416.97;4991430;28;20206;-60
2022/01/07 07:38:57;;;;;;;20.45;11.25;;;;;;;6.24;54.70;95417.34;4991421;28;20178;-60
2022/01/07 07:41:24;;;;;;;22.60;12.45;;;;;;;6.22;54.07;95423.78;4991609;28;20206;-59
2022/01/07 07:43:51;;;;;;;22.15;11.82;;;;;;;6.41;54.19;95420.97;4993556;28;20230;-59
2022/01/07 07:46:20;;;;;;;17.13;10.93;;;;;;;6.07;54.77;95414.53;5010332;28;20268;-61
2022/01/07 07:48:47;;;;;;;18.38;11.85;;;;;;;6.06;54.27;95420.72;5010337;28;20325;-59
2022/01/07 07:51:15;;;;;;;19.77;11.35;;;;;;;5.93;54.53;95417.47;5011521;28;20213;-59
2022/01/07 07:53:41;;;;;;;16.23;10.90;;;;;;;6.06;54.53;95425.13;5010780;28;20206;-60
2022/01/07 07:56:12;;;;;;;15.85;9.48;;;;;;;5.92;54.69;95428.88;5011434;28;20205;-59
2022/01/07 07:58:40;;;;;;;17.27;10.65;;;;;;;6.20;54.32;95425.81;5010271;28;20767;-59
2022/01/07 08:01:07;;;;;;;15.27;10.73;;;;;;;5.73;54.83;95429.81;5010866;28;20202;-60
2022/01/07 08:03:34;;;;;;;16.98;11.10;;;;;;;6.04;54.41;95425.34;5009506;28;21069;-63
2022/01/07 08:06:01;;;;;;;17.42;11.10;;;;;;;5.71;55.29;95432.59;5009750;28;20209;-60
2022/01/07 08:08:28;;;;;;;16.80;11.43;;;;;;;5.68;54.94;95432.22;5009615;28;20228;-59
2022/01/07 08:10:59;;;;;;;16.70;11.68;;;;;;;6.10;54.34;95426.31;5009884;28;20201;-60
2022/01/07 08:15:58;;;;;;;18.20;11.88;;;;;;;6.40;53.96;95426.41;5009633;28;20576;-60
2022/01/07 08:16:15;;;;;;;17.05;11.55;;;;;;;6.66;53.09;95419.09;5009967;28;20746;-60
2022/01/07 08:18:42;;;;;;;21.50;11.50;;;;;;;6.26;54.14;95420.53;5009410;28;20621;-59
2022/01/07 08:21:11;;;;;;;32.10;12.73;;;;;;;7.00;52.54;95421.09;5009843;28;20214;-59
2022/01/07 08:23:40;;;;;;;21.52;12.45;;;;;;;7.40;51.69;95421.34;5009255;28;20233;-61
2022/01/07 08:26:09;;;;;;;18.65;11.98;;;;;;;7.22;51.55;95420.59;5009605;28;20179;-59
2022/01/07 08:28:58;;;;;;;21.50;11.95;;;;;;;7.48;50.83;95409.81;5009271;28;20313;-59
2022/01/07 08:36:45;;;;;;;21.33;11.23;;;;;;;6.92;52.18;95413.56;5009787;28;20186;-59
2022/01/07 08:39:11;;;;;;;17.40;11.45;;;;;;;7.13;51.30;95402.66;5009005;28;20681;-60
2022/01/07 08:41:39;;;;;;;17.30;11.48;;;;;;;7.77;50.12;95404.50;5009401;28;20582;-60
2022/01/07 08:44:06;;;;;;;19.65;11.38;;;;;;;7.65;49.99;95408.94;5008680;28;20225;-59
2022/01/07 08:46:34;;;;;;;19.25;11.73;;;;;;;7.59;50.21;95406.44;5009928;28;20209;-60
2022/01/07 08:49:02;;;;;;;17.90;12.45;;;;;;;6.97;51.71;95403.28;5008130;28;20315;-59
2022/01/07 08:51:29;;;;;;;18.30;11.52;;;;;;;6.93;52.05;95391.72;5009533;28;20220;-62
2022/01/07 08:53:57;;;;;;;20.17;11.38;;;;;;;7.27;51.21;95397.28;5008690;28;20213;-59
2022/01/07 08:56:25;;;;;;;20.13;11.63;;;;;;;7.21;51.25;95398.19;5009626;28;20208;-59
2022/01/07 08:58:56;;;;;;;19.52;11.90;;;;;;;7.53;50.51;95391.69;5008831;28;20190;-58
2022/01/07 09:01:28;;;;;;;24.38;10.95;;;;;;;7.22;51.31;95390.91;5008636;28;20687;-59
2022/01/07 09:03:55;;;;;;;18.13;12.23;;;;;;;7.21;51.44;95398.19;5008454;28;20286;-60
2022/01/07 09:06:22;;;;;;;20.08;12.95;;;;;;;7.60;50.55;95387.16;5009218;28;20205;-59
2022/01/07 09:08:49;;;;;;;22.63;13.65;;;;;;;7.80;49.86;95382.41;5008284;28;20198;-60
2022/01/07 09:11:16;;;;;;;17.73;12.10;;;;;;;7.63;50.16;95378.88;5008738;28;20201;-60
2022/01/07 09:13:45;;;;;;;37.13;13.77;;;;;;;6.73;52.79;95380.75;5008981;28;20677;-59
2022/01/07 09:16:13;;;;;;;18.30;11.73;;;;;;;7.31;51.49;95380.16;5009560;28;20227;-60
2022/01/07 09:18:40;;;;;;;20.08;11.80;;;;;;;7.46;50.78;95376.16;5008983;28;20205;-58
2022/01/07 09:21:10;;;;;;;23.67;13.38;;;;;;;7.51;50.77;95373.66;5009172;28;20206;-59
2022/01/07 09:23:41;;;;;;;21.52;13.15;;;;;;;7.74;49.94;95372.88;5008586;28;20287;-59
2022/01/07 09:26:10;;;;;;;22.20;12.75;;;;;;;7.55;50.23;95374.00;5008644;28;20277;-59
2022/01/07 09:28:37;;;;;;;19.15;13.18;;;;;;;7.05;51.46;95379.53;5008402;28;20193;-59
2022/01/07 09:31:04;;;;;;;19.95;13.73;;;;;;;7.40;50.77;95365.81;5008834;28;20197;-59
2022/01/07 09:33:30;;;;;;;18.75;12.80;;;;;;;7.46;51.11;95364.91;5008770;28;20225;-59
2022/01/07 09:36:17;;;;;;;24.55;13.88;;;;;;;7.55;50.53;95368.78;5008681;28;20288;-60
2022/01/07 09:38:44;;;;;;;20.10;13.25;;;;;;;7.44;51.11;95364.34;5008824;28;20204;-60
2022/01/07 09:41:11;;;;;;;28.17;16.38;;;;;;;7.85;50.43;95365.06;5008095;28;20197;-59
2022/01/07 09:43:42;;;;;;;23.95;14.95;;;;;;;7.51;50.59;95362.41;5008250;28;20303;-59
2022/01/07 09:46:13;;;;;;;29.45;15.27;;;;;;;7.41;51.06;95362.97;5009097;28;20633;-58
2022/01/07 09:48:41;;;;;;;26.08;14.98;;;;;;;7.67;50.30;95361.75;5008448;28;20245;-60
2022/01/07 09:51:08;;;;;;;20.92;14.35;;;;;;;7.50;51.11;95350.41;5008522;28;20712;-59
2022/01/07 09:53:35;;;;;;;25.73;14.32;;;;;;;7.14;51.01;95354.75;5008013;28;20264;-59
2022/01/07 09:56:06;;;;;;;24.40;14.90;;;;;;;7.44;51.08;95341.69;5008900;28;20212;-59
2022/01/07 09:58:34;;;;;;;27.52;14.93;;;;;;;7.64;50.51;95349.19;5008241;28;20217;-59
2022/01/07 10:01:04;;;;;;;23.95;15.05;;;;;;;7.61;50.41;95349.63;5011359;28;20267;-60
2022/01/07 10:03:42;;;;;;;25.15;15.35;;;;;;;7.43;50.88;95344.47;5012005;28;20297;-58
2022/01/07 10:06:26;;;;;;;31.65;15.10;;;;;;;7.52;51.36;95346.53;5012090;28;20241;-59
2022/01/07 10:09:03;;;;;;;27.05;15.45;;;;;;;7.28;51.37;95349.34;5011826;28;20186;-60
2022/01/07 10:11:30;;;;;;;26.52;15.05;;;;;;;7.65;50.79;95342.94;5012923;28;20233;-58
2022/01/07 10:14:17;;;;;;;23.13;13.55;;;;;;;7.66;50.20;95341.91;5014987;28;20256;-59
2022/01/07 10:16:55;;;;;;;23.08;12.88;;;;;;;7.90;49.83;95341.69;5013601;28;20197;-59
2022/01/07 10:19:33;;;;;;;22.55;12.95;;;;;;;7.68;50.12;95343.25;5012103;28;20269;-59
2022/01/07 10:22:04;;;;;;;21.25;13.07;;;;;;;8.08;49.28;95332.94;5012302;28;20300;-60
2022/01/07 10:24:31;;;;;;;22.02;13.00;;;;;;;7.93;49.14;95341.25;5011595;28;20230;-59
2022/01/07 10:27:12;;;;;;;21.13;12.75;;;;;;;8.33;48.74;95336.13;5012080;28;20206;-59
2022/01/07 10:29:43;;;;;;;26.08;12.98;;;;;;;8.66;47.98;95331.03;5011535;28;20198;-59
2022/01/07 10:32:25;;;;;;;18.55;12.35;;;;;;;8.63;48.05;95322.88;5011834;28;20229;-59
2022/01/07 10:35:07;;;;;;;18.40;12.55;;;;;;;8.99;47.86;95314.66;5011574;28;20283;-59
2022/01/07 10:37:56;;;;;;;17.15;11.65;;;;;;;8.65;47.38;95313.75;5011660;28;20590;-59
2022/01/07 10:40:25;;;;;;;16.33;11.90;;;;;;;8.68;47.69;95312.50;5011465;28;20193;-59
2022/01/07 10:43:15;;;;;;;20.35;12.38;;;;;;;8.86;46.52;95302.66;5011704;28;20208;-59
2022/01/07 10:45:45;;;;;;;28.67;13.30;;;;;;;8.85;46.65;95298.44;5010706;28;20209;-59
2022/01/07 10:48:14;;;;;;;20.05;12.18;;;;;;;8.86;47.12;95305.28;5011300;28;20348;-59
2022/01/07 10:50:49;;;;;;;23.90;12.75;;;;;;;9.12;46.42;95296.84;5011821;28;20206;-60
2022/01/07 10:53:25;;;;;;;18.83;12.00;;;;;;;9.31;46.08;95299.22;5011849;28;20201;-59
2022/01/07 10:56:05;;;;;;;19.80;12.73;;;;;;;9.39;45.79;95299.63;5012074;28;20197;-59
2022/01/07 10:58:49;;;;;;;21.17;13.60;;;;;;;9.11;46.04;95303.09;5011290;28;20264;-59
2022/01/07 11:01:19;;;;;;;21.77;13.67;;;;;;;9.45;45.31;95285.59;5011277;28;20885;-59
2022/01/07 11:03:51;;;;;;;23.85;13.50;;;;;;;9.35;46.12;95288.06;5011190;28;20558;-59
2022/01/07 11:06:19;;;;;;;21.58;14.23;;;;;;;9.54;45.96;95292.03;5011540;28;20194;-60
2022/01/07 11:08:52;;;;;;;18.65;13.05;;;;;;;9.30;45.82;95287.19;5011108;28;20707;-60
2022/01/07 11:11:21;;;;;;;21.08;13.25;;;;;;;8.93;46.22;95289.44;5010361;28;20272;-59
2022/01/07 11:13:49;;;;;;;22.23;13.23;;;;;;;9.18;45.88;95282.81;5011075;28;20669;-59
2022/01/07 11:16:17;;;;;;;22.70;13.53;;;;;;;9.36;45.98;95278.41;5011309;28;20198;-60
2022/01/07 11:18:46;;;;;;;20.63;12.57;;;;;;;9.35;46.20;95282.81;5010863;28;20543;-59
2022/01/07 11:21:17;;;;;;;33.47;13.15;;;;;;;8.73;46.92;95284.66;5010093;28;20245;-60
2022/01/07 11:23:45;;;;;;;23.13;12.65;;;;;;;9.00;46.15;95275.19;5010308;28;20230;-59
2022/01/07 11:26:13;;;;;;;17.80;12.02;;;;;;;8.90;46.05;95277.66;5010932;28;20202;-60
2022/01/07 11:28:55;;;;;;;22.88;12.90;;;;;;;9.25;45.00;95247.88;5010528;28;20186;-59
2022/01/07 11:31:22;;;;;;;19.23;12.67;;;;;;;9.55;45.02;95267.44;5010572;28;20750;-60
2022/01/07 11:34:18;;;;;;;19.27;12.17;;;;;;;9.82;43.83;95267.56;5010677;28;20444;-58
2022/01/07 11:36:46;;;;;;;23.60;12.27;;;;;;;9.97;44.09;95257.28;5010359;28;20503;-60
2022/01/07 11:39:14;;;;;;;18.55;12.00;;;;;;;9.48;43.95;95266.81;5009734;28;20515;-60
2022/01/07 11:41:47;;;;;;;18.13;11.43;;;;;;;9.23;45.17;95265.63;5010885;28;20252;-59
2022/01/07 11:44:25;;;;;;;23.63;11.93;;;;;;;9.64;44.47;95249.50;5010090;28;20229;-60
2022/01/07 11:47:12;;;;;;;19.60;11.88;;;;;;;9.69;44.42;95257.44;5010691;28;20208;-60
2022/01/07 11:49:39;;;;;;;19.27;11.77;;;;;;;9.60;45.33;95253.66;5009819;28;20229;-59
2022/01/07 11:52:30;;;;;;;20.48;12.50;;;;;;;9.82;44.22;95251.84;5010052;28;20201;-59
2022/01/07 11:55:22;;;;;;;21.70;12.70;;;;;;;9.70;44.98;95259.03;5010459;28;20194;-59